sensor_id;sensor_type;location;lat;lon;timestamp;pressure;altitude;pressure_sealevel;temperature;humidity
20710;BME280;10516;51.518;9.864;2022-07-29T00:00:40;99006.25;;;18.16;52.87
20710;BME280;10516;51.518;9.864;2022-07-29T00:03:13;98984.34;;;18.17;52.42
20710;BME280;10516;51.518;9.864;2022-07-29T00:05:40;98988.91;;;18.35;51.47
20710;BME280;10516;51.518;9.864;2022-07-29T00:08:06;98991.72;;;18.30;52.13
20710;BME280;10516;51.518;9.864;2022-07-29T00:10:32;98982.13;;;18.70;51.21
20710;BME280;10516;51.518;9.864;2022-07-29T00:12:57;98977.22;;;18.72;50.85
20710;BME280;10516;51.518;9.864;2022-07-29T00:15:22;98985.13;;;19.41;48.51
20710;BME280;10516;51.518;9.864;2022-07-29T00:17:48;98980.88;;;19.22;49.33
20710;BME280;10516;51.518;9.864;2022-07-29T00:20:13;98972.44;;;19.51;48.73
20710;BME280;10516;51.518;9.864;2022-07-29T00:22:39;98989.56;;;19.60;47.76
20710;BME280;10516;51.518;9.864;2022-07-29T00:25:05;98970.03;;;19.63;48.05
20710;BME280;10516;51.518;9.864;2022-07-29T00:27:30;98975.41;;;19.76;48.57
20710;BME280;10516;51.518;9.864;2022-07-29T00:29:56;98966.81;;;19.74;47.93
20710;BME280;10516;51.518;9.864;2022-07-29T00:32:21;98964.28;;;19.64;48.32
20710;BME280;10516;51.518;9.864;2022-07-29T00:34:47;98977.81;;;19.78;48.60
20710;BME280;10516;51.518;9.864;2022-07-29T00:37:31;98972.00;;;19.71;48.78
20710;BME280;10516;51.518;9.864;2022-07-29T00:39:56;98957.31;;;19.50;48.63
20710;BME280;10516;51.518;9.864;2022-07-29T00:42:22;98961.91;;;19.63;48.71
20710;BME280;10516;51.518;9.864;2022-07-29T00:44:47;98972.44;;;19.51;48.83
20710;BME280;10516;51.518;9.864;2022-07-29T00:47:12;98967.00;;;19.64;48.76
20710;BME280;10516;51.518;9.864;2022-07-29T00:49:39;98940.56;;;19.48;49.05
20710;BME280;10516;51.518;9.864;2022-07-29T00:52:06;98960.50;;;19.65;48.89
20710;BME280;10516;51.518;9.864;2022-07-29T00:54:33;98953.38;;;19.56;48.98
20710;BME280;10516;51.518;9.864;2022-07-29T00:56:59;98959.00;;;19.59;49.08
20710;BME280;10516;51.518;9.864;2022-07-29T00:59:26;98946.88;;;19.57;48.82
20710;BME280;10516;51.518;9.864;2022-07-29T01:01:52;98953.50;;;19.51;48.93
20710;BME280;10516;51.518;9.864;2022-07-29T01:04:17;98951.72;;;19.46;49.36
20710;BME280;10516;51.518;9.864;2022-07-29T01:06:43;98958.50;;;19.30;49.85
20710;BME280;10516;51.518;9.864;2022-07-29T01:09:09;98939.69;;;18.98;50.47
20710;BME280;10516;51.518;9.864;2022-07-29T01:11:36;98937.28;;;18.96;52.90
20710;BME280;10516;51.518;9.864;2022-07-29T01:14:02;98942.53;;;18.47;54.42
20710;BME280;10516;51.518;9.864;2022-07-29T01:16:32;98935.16;;;18.80;52.47
20710;BME280;10516;51.518;9.864;2022-07-29T01:19:12;98949.69;;;19.24;50.35
20710;BME280;10516;51.518;9.864;2022-07-29T01:21:51;98939.97;;;19.23;49.91
20710;BME280;10516;51.518;9.864;2022-07-29T01:24:33;98933.28;;;19.34;49.75
20710;BME280;10516;51.518;9.864;2022-07-29T01:29:55;98928.06;;;19.38;50.25
20710;BME280;10516;51.518;9.864;2022-07-29T01:32:25;98937.97;;;19.42;49.52
20710;BME280;10516;51.518;9.864;2022-07-29T01:35:01;98931.66;;;19.47;50.01
20710;BME280;10516;51.518;9.864;2022-07-29T01:39:55;98931.63;;;19.33;50.19
20710;BME280;10516;51.518;9.864;2022-07-29T01:42:35;98916.72;;;19.22;49.93
20710;BME280;10516;51.518;9.864;2022-07-29T01:45:25;98923.66;;;19.15;50.92
20710;BME280;10516;51.518;9.864;2022-07-29T01:50:16;98898.09;;;19.34;50.19
20710;BME280;10516;51.518;9.864;2022-07-29T01:52:58;98904.88;;;19.18;50.12
20710;BME280;10516;51.518;9.864;2022-07-29T01:55:28;98912.50;;;19.16;50.70
20710;BME280;10516;51.518;9.864;2022-07-29T01:57:56;98895.69;;;19.19;50.65
20710;BME280;10516;51.518;9.864;2022-07-29T02:00:23;98897.16;;;19.25;50.58
20710;BME280;10516;51.518;9.864;2022-07-29T02:02:50;98898.09;;;19.34;49.98
20710;BME280;10516;51.518;9.864;2022-07-29T02:05:18;98903.19;;;19.22;50.49
20710;BME280;10516;51.518;9.864;2022-07-29T02:07:47;98909.53;;;18.91;52.59
20710;BME280;10516;51.518;9.864;2022-07-29T02:10:14;98893.88;;;19.01;50.61
20710;BME280;10516;51.518;9.864;2022-07-29T02:12:42;98899.19;;;18.65;53.51
20710;BME280;10516;51.518;9.864;2022-07-29T02:15:09;98899.69;;;18.81;51.59
20710;BME280;10516;51.518;9.864;2022-07-29T02:17:51;98906.81;;;19.04;50.74
20710;BME280;10516;51.518;9.864;2022-07-29T02:20:18;98895.22;;;18.63;52.54
20710;BME280;10516;51.518;9.864;2022-07-29T02:22:44;98898.31;;;18.84;52.20
20710;BME280;10516;51.518;9.864;2022-07-29T02:25:12;98876.56;;;18.75;51.81
20710;BME280;10516;51.518;9.864;2022-07-29T02:27:39;98890.69;;;18.99;51.14
20710;BME280;10516;51.518;9.864;2022-07-29T02:30:07;98876.66;;;18.97;50.45
20710;BME280;10516;51.518;9.864;2022-07-29T02:32:35;98876.75;;;18.92;50.69
20710;BME280;10516;51.518;9.864;2022-07-29T02:35:03;98896.47;;;19.20;51.00
20710;BME280;10516;51.518;9.864;2022-07-29T02:37:29;98881.69;;;18.63;51.83
20710;BME280;10516;51.518;9.864;2022-07-29T02:39:57;98886.19;;;18.95;51.44
20710;BME280;10516;51.518;9.864;2022-07-29T02:42:24;98880.09;;;18.76;52.93
20710;BME280;10516;51.518;9.864;2022-07-29T02:44:52;98893.28;;;18.63;51.98
20710;BME280;10516;51.518;9.864;2022-07-29T02:52:44;98890.38;;;19.01;51.36
20710;BME280;10516;51.518;9.864;2022-07-29T02:55:32;98888.88;;;19.08;50.63
20710;BME280;10516;51.518;9.864;2022-07-29T03:01:04;98860.44;;;18.84;50.95
20710;BME280;10516;51.518;9.864;2022-07-29T03:03:36;98865.63;;;18.94;50.85
20710;BME280;10516;51.518;9.864;2022-07-29T03:06:03;98863.72;;;18.94;50.75
20710;BME280;10516;51.518;9.864;2022-07-29T03:08:29;98877.34;;;19.03;51.20
20710;BME280;10516;51.518;9.864;2022-07-29T03:10:56;98862.84;;;18.85;50.66
20710;BME280;10516;51.518;9.864;2022-07-29T03:13:22;98870.63;;;19.00;50.83
20710;BME280;10516;51.518;9.864;2022-07-29T03:15:49;98866.84;;;19.01;51.10
20710;BME280;10516;51.518;9.864;2022-07-29T03:18:15;98880.28;;;18.93;51.50
20710;BME280;10516;51.518;9.864;2022-07-29T03:20:40;98844.63;;;18.77;51.31
20710;BME280;10516;51.518;9.864;2022-07-29T03:23:07;98858.22;;;18.72;52.59
20710;BME280;10516;51.518;9.864;2022-07-29T03:25:33;98861.25;;;18.84;51.33
20710;BME280;10516;51.518;9.864;2022-07-29T03:27:58;98865.84;;;18.97;51.33
20710;BME280;10516;51.518;9.864;2022-07-29T03:30:24;98856.03;;;18.88;51.52
20710;BME280;10516;51.518;9.864;2022-07-29T03:32:50;98861.84;;;18.81;51.73
20710;BME280;10516;51.518;9.864;2022-07-29T03:35:15;98856.44;;;18.81;51.84
20710;BME280;10516;51.518;9.864;2022-07-29T03:37:47;98856.66;;;18.85;51.73
20710;BME280;10516;51.518;9.864;2022-07-29T03:40:20;98856.25;;;18.78;51.55
20710;BME280;10516;51.518;9.864;2022-07-29T03:42:47;98856.44;;;18.67;53.23
20710;BME280;10516;51.518;9.864;2022-07-29T03:45:17;98855.06;;;18.24;52.88
20710;BME280;10516;51.518;9.864;2022-07-29T03:47:56;98855.66;;;17.75;54.44
20710;BME280;10516;51.518;9.864;2022-07-29T03:50:23;98849.56;;;17.83;53.96
20710;BME280;10516;51.518;9.864;2022-07-29T03:52:49;98865.59;;;18.26;53.07
20710;BME280;10516;51.518;9.864;2022-07-29T03:55:15;98850.13;;;18.45;52.16
20710;BME280;10516;51.518;9.864;2022-07-29T03:57:41;98861.44;;;18.74;51.79
20710;BME280;10516;51.518;9.864;2022-07-29T04:00:07;98867.75;;;18.83;51.33
20710;BME280;10516;51.518;9.864;2022-07-29T04:02:33;98868.78;;;18.74;51.59
20710;BME280;10516;51.518;9.864;2022-07-29T04:04:59;98872.06;;;18.84;51.92
20710;BME280;10516;51.518;9.864;2022-07-29T04:07:25;98866.66;;;18.57;52.53
20710;BME280;10516;51.518;9.864;2022-07-29T04:09:50;98875.25;;;18.59;52.25
20710;BME280;10516;51.518;9.864;2022-07-29T04:12:16;98858.63;;;18.65;51.86
20710;BME280;10516;51.518;9.864;2022-07-29T04:14:41;98853.75;;;18.54;52.79
20710;BME280;10516;51.518;9.864;2022-07-29T04:17:06;98862.66;;;18.68;52.34
20710;BME280;10516;51.518;9.864;2022-07-29T04:19:32;98861.25;;;18.57;53.16
20710;BME280;10516;51.518;9.864;2022-07-29T04:21:59;98868.66;;;18.79;52.01
20710;BME280;10516;51.518;9.864;2022-07-29T04:24:25;98861.94;;;18.49;52.82
20710;BME280;10516;51.518;9.864;2022-07-29T04:26:51;98853.53;;;18.64;52.66
20710;BME280;10516;51.518;9.864;2022-07-29T04:29:16;98866.75;;;18.79;52.29
20710;BME280;10516;51.518;9.864;2022-07-29T04:31:42;98858.03;;;18.68;52.18
20710;BME280;10516;51.518;9.864;2022-07-29T04:34:08;98872.78;;;18.76;52.29
20710;BME280;10516;51.518;9.864;2022-07-29T04:36:34;98877.66;;;18.74;52.49
20710;BME280;10516;51.518;9.864;2022-07-29T04:38:59;98881.28;;;18.69;52.69
20710;BME280;10516;51.518;9.864;2022-07-29T04:41:26;98866.84;;;18.74;52.41
20710;BME280;10516;51.518;9.864;2022-07-29T04:43:52;98868.44;;;18.48;55.21
20710;BME280;10516;51.518;9.864;2022-07-29T04:46:17;98864.97;;;18.29;54.92
20710;BME280;10516;51.518;9.864;2022-07-29T04:48:45;98859.44;;;18.07;55.28
20710;BME280;10516;51.518;9.864;2022-07-29T04:51:11;98877.91;;;18.32;54.18
20710;BME280;10516;51.518;9.864;2022-07-29T04:53:36;98887.41;;;18.89;52.42
20710;BME280;10516;51.518;9.864;2022-07-29T04:56:02;98891.50;;;19.00;52.09
20710;BME280;10516;51.518;9.864;2022-07-29T04:58:28;98897.91;;;19.17;52.09
20710;BME280;10516;51.518;9.864;2022-07-29T05:00:53;98888.28;;;18.98;52.24
20710;BME280;10516;51.518;9.864;2022-07-29T05:03:18;98895.50;;;19.02;52.72
20710;BME280;10516;51.518;9.864;2022-07-29T05:05:44;98898.72;;;18.91;52.31
20710;BME280;10516;51.518;9.864;2022-07-29T05:08:09;98883.06;;;18.74;54.14
20710;BME280;10516;51.518;9.864;2022-07-29T05:10:35;98866.88;;;18.60;56.47
20710;BME280;10516;51.518;9.864;2022-07-29T05:13:06;98873.78;;;18.21;56.75
20710;BME280;10516;51.518;9.864;2022-07-29T05:15:36;98883.41;;;18.27;56.21
20710;BME280;10516;51.518;9.864;2022-07-29T05:18:02;98882.28;;;18.60;53.75
20710;BME280;10516;51.518;9.864;2022-07-29T05:20:28;98879.69;;;18.96;52.67
20710;BME280;10516;51.518;9.864;2022-07-29T05:22:59;98876.25;;;19.04;52.34
20710;BME280;10516;51.518;9.864;2022-07-29T05:25:25;98883.09;;;18.60;58.01
20710;BME280;10516;51.518;9.864;2022-07-29T05:27:51;98880.88;;;18.49;58.25
20710;BME280;10516;51.518;9.864;2022-07-29T05:30:17;98869.16;;;18.08;57.13
20710;BME280;10516;51.518;9.864;2022-07-29T05:32:43;98872.94;;;18.39;55.40
20710;BME280;10516;51.518;9.864;2022-07-29T05:35:08;98887.28;;;18.21;58.13
20710;BME280;10516;51.518;9.864;2022-07-29T05:37:34;98874.69;;;17.84;58.61
20710;BME280;10516;51.518;9.864;2022-07-29T05:39:59;98879.72;;;17.72;58.67
20710;BME280;10516;51.518;9.864;2022-07-29T05:42:25;98866.72;;;17.37;58.68
20710;BME280;10516;51.518;9.864;2022-07-29T05:44:51;98877.09;;;17.48;58.12
20710;BME280;10516;51.518;9.864;2022-07-29T05:47:17;98875.50;;;17.66;59.52
20710;BME280;10516;51.518;9.864;2022-07-29T05:49:42;98870.38;;;17.83;59.31
20710;BME280;10516;51.518;9.864;2022-07-29T05:52:08;98869.66;;;18.10;59.03
20710;BME280;10516;51.518;9.864;2022-07-29T05:54:34;98872.19;;;18.33;57.87
20710;BME280;10516;51.518;9.864;2022-07-29T05:56:59;98863.47;;;18.82;56.30
20710;BME280;10516;51.518;9.864;2022-07-29T05:59:25;98859.84;;;18.87;56.03
20710;BME280;10516;51.518;9.864;2022-07-29T06:01:50;98870.47;;;18.69;55.96
20710;BME280;10516;51.518;9.864;2022-07-29T06:04:16;98887.66;;;18.87;56.78
20710;BME280;10516;51.518;9.864;2022-07-29T06:06:41;98891.50;;;18.86;55.63
20710;BME280;10516;51.518;9.864;2022-07-29T06:09:06;98888.78;;;18.86;55.54
20710;BME280;10516;51.518;9.864;2022-07-29T06:11:33;98863.06;;;18.89;55.17
20710;BME280;10516;51.518;9.864;2022-07-29T06:13:58;98877.50;;;19.33;53.90
20710;BME280;10516;51.518;9.864;2022-07-29T06:16:23;98882.25;;;19.41;54.22
20710;BME280;10516;51.518;9.864;2022-07-29T06:18:49;98883.81;;;19.42;55.27
20710;BME280;10516;51.518;9.864;2022-07-29T06:21:14;98888.72;;;19.54;54.04
20710;BME280;10516;51.518;9.864;2022-07-29T06:23:40;98880.63;;;19.40;54.33
20710;BME280;10516;51.518;9.864;2022-07-29T06:26:06;98872.59;;;19.71;53.23
20710;BME280;10516;51.518;9.864;2022-07-29T06:28:32;98884.25;;;19.36;53.70
20710;BME280;10516;51.518;9.864;2022-07-29T06:30:58;98882.16;;;19.06;54.61
20710;BME280;10516;51.518;9.864;2022-07-29T06:33:23;98885.94;;;19.18;54.06
20710;BME280;10516;51.518;9.864;2022-07-29T06:35:49;98870.38;;;19.73;52.74
20710;BME280;10516;51.518;9.864;2022-07-29T06:38:14;98867.78;;;19.68;54.05
20710;BME280;10516;51.518;9.864;2022-07-29T06:40:44;98880.56;;;19.68;53.08
20710;BME280;10516;51.518;9.864;2022-07-29T06:43:25;98880.22;;;19.47;51.95
20710;BME280;10516;51.518;9.864;2022-07-29T06:45:52;98887.34;;;19.29;52.96
20710;BME280;10516;51.518;9.864;2022-07-29T06:48:17;98889.13;;;19.48;52.30
20710;BME280;10516;51.518;9.864;2022-07-29T06:50:42;98878.00;;;19.49;52.50
20710;BME280;10516;51.518;9.864;2022-07-29T06:53:08;98877.59;;;19.78;53.70
20710;BME280;10516;51.518;9.864;2022-07-29T06:55:33;98871.41;;;20.08;52.26
20710;BME280;10516;51.518;9.864;2022-07-29T06:57:58;98878.19;;;19.75;52.96
20710;BME280;10516;51.518;9.864;2022-07-29T07:00:24;98877.81;;;19.46;52.98
20710;BME280;10516;51.518;9.864;2022-07-29T07:02:50;98886.19;;;19.58;53.55
20710;BME280;10516;51.518;9.864;2022-07-29T07:05:15;98882.81;;;19.52;53.93
20710;BME280;10516;51.518;9.864;2022-07-29T07:07:40;98876.69;;;19.47;53.24
20710;BME280;10516;51.518;9.864;2022-07-29T07:10:06;98887.34;;;19.79;52.73
20710;BME280;10516;51.518;9.864;2022-07-29T07:12:31;98886.69;;;20.04;51.62
20710;BME280;10516;51.518;9.864;2022-07-29T07:14:57;98879.06;;;19.84;52.94
20710;BME280;10516;51.518;9.864;2022-07-29T07:17:22;98887.03;;;19.44;53.46
20710;BME280;10516;51.518;9.864;2022-07-29T07:19:48;98895.38;;;19.34;53.00
20710;BME280;10516;51.518;9.864;2022-07-29T07:22:13;98886.00;;;19.54;53.55
20710;BME280;10516;51.518;9.864;2022-07-29T07:24:38;98893.66;;;19.38;53.27
20710;BME280;10516;51.518;9.864;2022-07-29T07:27:04;98875.91;;;19.68;53.35
20710;BME280;10516;51.518;9.864;2022-07-29T07:29:29;98900.38;;;20.21;53.08
20710;BME280;10516;51.518;9.864;2022-07-29T07:31:54;98888.75;;;20.51;52.54
20710;BME280;10516;51.518;9.864;2022-07-29T07:34:20;98900.13;;;20.09;52.51
20710;BME280;10516;51.518;9.864;2022-07-29T07:36:46;98872.72;;;20.10;52.28
20710;BME280;10516;51.518;9.864;2022-07-29T07:39:11;98889.16;;;20.36;52.77
20710;BME280;10516;51.518;9.864;2022-07-29T07:41:36;98877.59;;;20.53;52.25
20710;BME280;10516;51.518;9.864;2022-07-29T07:44:02;98881.88;;;20.93;51.69
20710;BME280;10516;51.518;9.864;2022-07-29T07:46:27;98892.28;;;21.00;50.23
20710;BME280;10516;51.518;9.864;2022-07-29T07:48:53;98868.16;;;20.89;51.38
20710;BME280;10516;51.518;9.864;2022-07-29T07:51:18;98891.25;;;20.70;50.69
20710;BME280;10516;51.518;9.864;2022-07-29T07:53:43;98895.56;;;20.79;51.85
20710;BME280;10516;51.518;9.864;2022-07-29T07:56:10;98882.72;;;20.54;51.54
20710;BME280;10516;51.518;9.864;2022-07-29T07:58:35;98888.75;;;20.90;50.89
20710;BME280;10516;51.518;9.864;2022-07-29T08:01:01;98912.47;;;21.07;50.61
20710;BME280;10516;51.518;9.864;2022-07-29T08:03:27;98908.53;;;21.56;49.17
20710;BME280;10516;51.518;9.864;2022-07-29T08:05:52;98901.53;;;21.55;50.30
20710;BME280;10516;51.518;9.864;2022-07-29T08:08:19;98918.78;;;21.42;50.19
20710;BME280;10516;51.518;9.864;2022-07-29T08:10:45;98906.63;;;21.65;49.35
20710;BME280;10516;51.518;9.864;2022-07-29T08:13:25;98915.47;;;21.88;49.00
20710;BME280;10516;51.518;9.864;2022-07-29T08:15:52;98912.72;;;22.13;48.08
20710;BME280;10516;51.518;9.864;2022-07-29T08:18:26;98898.00;;;21.80;50.53
20710;BME280;10516;51.518;9.864;2022-07-29T08:20:52;98900.94;;;21.92;48.18
20710;BME280;10516;51.518;9.864;2022-07-29T08:23:17;98898.34;;;21.70;49.87
20710;BME280;10516;51.518;9.864;2022-07-29T08:25:44;98909.88;;;21.93;49.18
20710;BME280;10516;51.518;9.864;2022-07-29T08:28:09;98904.59;;;21.88;50.22
20710;BME280;10516;51.518;9.864;2022-07-29T08:30:35;98908.25;;;22.17;48.94
20710;BME280;10516;51.518;9.864;2022-07-29T08:33:00;98903.94;;;22.08;48.88
20710;BME280;10516;51.518;9.864;2022-07-29T08:35:27;98893.28;;;22.49;47.82
20710;BME280;10516;51.518;9.864;2022-07-29T08:37:53;98896.16;;;22.61;47.70
20710;BME280;10516;51.518;9.864;2022-07-29T08:40:19;98895.19;;;22.66;48.97
20710;BME280;10516;51.518;9.864;2022-07-29T08:42:46;98898.66;;;22.75;47.13
20710;BME280;10516;51.518;9.864;2022-07-29T08:45:11;98897.09;;;22.65;48.29
20710;BME280;10516;51.518;9.864;2022-07-29T08:47:38;98893.50;;;22.35;47.28
20710;BME280;10516;51.518;9.864;2022-07-29T08:50:08;98899.47;;;22.12;48.43
20710;BME280;10516;51.518;9.864;2022-07-29T08:52:39;98871.84;;;22.56;47.62
20710;BME280;10516;51.518;9.864;2022-07-29T08:55:07;98868.44;;;22.68;47.33
20710;BME280;10516;51.518;9.864;2022-07-29T08:57:34;98883.19;;;21.95;48.55
20710;BME280;10516;51.518;9.864;2022-07-29T09:00:01;98870.53;;;21.73;49.04
20710;BME280;10516;51.518;9.864;2022-07-29T09:02:29;98870.16;;;22.17;48.44
20710;BME280;10516;51.518;9.864;2022-07-29T09:05:00;98856.94;;;21.39;49.19
20710;BME280;10516;51.518;9.864;2022-07-29T09:07:26;98860.47;;;21.65;49.92
20710;BME280;10516;51.518;9.864;2022-07-29T09:09:52;98855.84;;;21.40;50.37
20710;BME280;10516;51.518;9.864;2022-07-29T09:12:18;98862.84;;;21.49;50.16
20710;BME280;10516;51.518;9.864;2022-07-29T09:14:43;98847.53;;;21.62;49.84
20710;BME280;10516;51.518;9.864;2022-07-29T09:17:08;98854.06;;;21.35;50.48
20710;BME280;10516;51.518;9.864;2022-07-29T09:19:36;98858.84;;;20.73;51.53
20710;BME280;10516;51.518;9.864;2022-07-29T09:22:03;98846.94;;;21.00;51.11
20710;BME280;10516;51.518;9.864;2022-07-29T09:27:09;98851.16;;;22.09;48.63
20710;BME280;10516;51.518;9.864;2022-07-29T09:29:35;98858.69;;;22.03;49.13
20710;BME280;10516;51.518;9.864;2022-07-29T09:32:06;98859.50;;;21.95;49.73
20710;BME280;10516;51.518;9.864;2022-07-29T09:34:33;98856.16;;;21.90;49.17
20710;BME280;10516;51.518;9.864;2022-07-29T09:36:59;98863.16;;;21.48;53.41
20710;BME280;10516;51.518;9.864;2022-07-29T09:39:38;98843.66;;;20.64;52.56
20710;BME280;10516;51.518;9.864;2022-07-29T09:42:11;98856.53;;;20.50;53.35
20710;BME280;10516;51.518;9.864;2022-07-29T09:47:08;98840.72;;;20.43;51.82
20710;BME280;10516;51.518;9.864;2022-07-29T09:49:35;98841.59;;;20.30;52.28
20710;BME280;10516;51.518;9.864;2022-07-29T09:52:07;98856.84;;;20.48;52.08
20710;BME280;10516;51.518;9.864;2022-07-29T09:54:33;98863.00;;;20.40;55.88
20710;BME280;10516;51.518;9.864;2022-07-29T09:57:03;98824.28;;;20.17;56.41
20710;BME280;10516;51.518;9.864;2022-07-29T09:59:29;98846.19;;;20.21;53.94
20710;BME280;10516;51.518;9.864;2022-07-29T10:01:55;98838.66;;;20.18;54.34
20710;BME280;10516;51.518;9.864;2022-07-29T10:04:21;98853.53;;;20.29;53.28
20710;BME280;10516;51.518;9.864;2022-07-29T10:07:00;98850.06;;;20.29;53.23
20710;BME280;10516;51.518;9.864;2022-07-29T10:09:27;98837.13;;;20.26;52.99
20710;BME280;10516;51.518;9.864;2022-07-29T10:12:03;98842.38;;;20.22;53.36
20710;BME280;10516;51.518;9.864;2022-07-29T10:14:31;98844.25;;;20.52;52.75
20710;BME280;10516;51.518;9.864;2022-07-29T10:16:59;98845.50;;;20.46;53.37
20710;BME280;10516;51.518;9.864;2022-07-29T10:19:25;98821.63;;;20.57;52.71
20710;BME280;10516;51.518;9.864;2022-07-29T10:21:51;98843.84;;;20.76;52.14
20710;BME280;10516;51.518;9.864;2022-07-29T10:24:17;98846.09;;;20.74;52.18
20710;BME280;10516;51.518;9.864;2022-07-29T10:26:43;98828.25;;;20.81;51.38
20710;BME280;10516;51.518;9.864;2022-07-29T10:29:11;98832.16;;;21.32;51.07
20710;BME280;10516;51.518;9.864;2022-07-29T10:31:44;98823.22;;;21.83;49.50
20710;BME280;10516;51.518;9.864;2022-07-29T10:40:31;98837.34;;;22.31;47.77
20710;BME280;10516;51.518;9.864;2022-07-29T10:43:27;98833.06;;;22.97;48.05
20710;BME280;10516;51.518;9.864;2022-07-29T10:45:58;98831.22;;;23.09;48.84
20710;BME280;10516;51.518;9.864;2022-07-29T10:48:24;98816.06;;;23.00;48.28
20710;BME280;10516;51.518;9.864;2022-07-29T10:50:55;98820.72;;;23.20;46.28
20710;BME280;10516;51.518;9.864;2022-07-29T10:53:24;98826.34;;;22.94;48.56
20710;BME280;10516;51.518;9.864;2022-07-29T10:55:51;98807.41;;;22.98;47.61
20710;BME280;10516;51.518;9.864;2022-07-29T10:58:19;98815.22;;;23.29;47.63
20710;BME280;10516;51.518;9.864;2022-07-29T11:00:52;98829.19;;;23.68;46.65
20710;BME280;10516;51.518;9.864;2022-07-29T11:03:44;98819.19;;;23.31;47.54
20710;BME280;10516;51.518;9.864;2022-07-29T11:06:13;98816.63;;;23.55;47.25
20710;BME280;10516;51.518;9.864;2022-07-29T11:08:39;98821.00;;;24.01;47.07
20710;BME280;10516;51.518;9.864;2022-07-29T11:13:47;98810.22;;;24.49;46.55
20710;BME280;10516;51.518;9.864;2022-07-29T11:16:14;98801.41;;;25.28;44.31
20710;BME280;10516;51.518;9.864;2022-07-29T11:21:38;98801.53;;;25.20;45.16
20710;BME280;10516;51.518;9.864;2022-07-29T11:24:18;98813.88;;;25.81;44.54
20710;BME280;10516;51.518;9.864;2022-07-29T11:27:06;98802.22;;;26.43;42.70
20710;BME280;10516;51.518;9.864;2022-07-29T11:29:31;98803.44;;;26.30;42.30
20710;BME280;10516;51.518;9.864;2022-07-29T11:32:10;98806.81;;;25.41;43.50
20710;BME280;10516;51.518;9.864;2022-07-29T11:34:36;98790.63;;;25.75;44.04
20710;BME280;10516;51.518;9.864;2022-07-29T11:45:09;98795.59;;;25.58;44.02
20710;BME280;10516;51.518;9.864;2022-07-29T11:47:40;98780.97;;;25.38;44.25
20710;BME280;10516;51.518;9.864;2022-07-29T11:50:09;98788.25;;;25.34;44.92
20710;BME280;10516;51.518;9.864;2022-07-29T11:52:41;98790.13;;;25.58;43.91
20710;BME280;10516;51.518;9.864;2022-07-29T11:55:14;98784.78;;;26.67;42.87
20710;BME280;10516;51.518;9.864;2022-07-29T11:57:47;98780.75;;;27.11;41.40
20710;BME280;10516;51.518;9.864;2022-07-29T12:00:39;98776.28;;;27.03;41.11
20710;BME280;10516;51.518;9.864;2022-07-29T12:03:07;98783.91;;;27.67;41.41
20710;BME280;10516;51.518;9.864;2022-07-29T12:05:37;98774.47;;;27.65;40.96
20710;BME280;10516;51.518;9.864;2022-07-29T12:08:05;98780.41;;;27.13;40.90
20710;BME280;10516;51.518;9.864;2022-07-29T12:10:31;98770.63;;;26.96;41.40
20710;BME280;10516;51.518;9.864;2022-07-29T12:12:57;98770.38;;;27.01;41.80
20710;BME280;10516;51.518;9.864;2022-07-29T12:15:22;98774.03;;;27.09;41.19
20710;BME280;10516;51.518;9.864;2022-07-29T12:17:49;98768.84;;;26.53;41.38
20710;BME280;10516;51.518;9.864;2022-07-29T12:20:26;98769.88;;;26.80;42.35
20710;BME280;10516;51.518;9.864;2022-07-29T12:22:52;98773.34;;;27.12;42.25
20710;BME280;10516;51.518;9.864;2022-07-29T12:25:20;98759.66;;;26.77;42.46
20710;BME280;10516;51.518;9.864;2022-07-29T12:27:47;98751.81;;;26.95;42.43
20710;BME280;10516;51.518;9.864;2022-07-29T12:30:14;98742.97;;;27.01;42.14
20710;BME280;10516;51.518;9.864;2022-07-29T12:32:46;98751.56;;;27.57;41.69
20710;BME280;10516;51.518;9.864;2022-07-29T12:35:18;98756.56;;;27.32;41.04
20710;BME280;10516;51.518;9.864;2022-07-29T12:37:47;98735.06;;;26.81;40.94
20710;BME280;10516;51.518;9.864;2022-07-29T12:40:14;98744.78;;;27.32;40.07
20710;BME280;10516;51.518;9.864;2022-07-29T12:43:04;98747.28;;;27.79;40.25
20710;BME280;10516;51.518;9.864;2022-07-29T12:45:30;98743.03;;;27.24;40.99
20710;BME280;10516;51.518;9.864;2022-07-29T12:47:56;98747.16;;;27.72;41.41
20710;BME280;10516;51.518;9.864;2022-07-29T12:50:22;98731.75;;;28.09;40.66
20710;BME280;10516;51.518;9.864;2022-07-29T12:52:47;98718.31;;;28.49;40.35
20710;BME280;10516;51.518;9.864;2022-07-29T12:55:13;98729.78;;;27.26;41.04
20710;BME280;10516;51.518;9.864;2022-07-29T12:57:49;98726.94;;;28.02;40.86
20710;BME280;10516;51.518;9.864;2022-07-29T13:00:22;98727.06;;;27.26;40.53
20710;BME280;10516;51.518;9.864;2022-07-29T13:02:55;98741.22;;;27.70;41.29
20710;BME280;10516;51.518;9.864;2022-07-29T13:05:20;98731.19;;;27.77;41.46
20710;BME280;10516;51.518;9.864;2022-07-29T13:07:47;98730.44;;;27.99;40.28
20710;BME280;10516;51.518;9.864;2022-07-29T13:10:15;98721.91;;;27.85;41.31
20710;BME280;10516;51.518;9.864;2022-07-29T13:13:06;98733.63;;;28.01;40.15
20710;BME280;10516;51.518;9.864;2022-07-29T13:15:34;98733.22;;;27.61;41.11
20710;BME280;10516;51.518;9.864;2022-07-29T13:18:00;98722.03;;;26.93;41.63
20710;BME280;10516;51.518;9.864;2022-07-29T13:20:28;98719.94;;;26.87;41.81
20710;BME280;10516;51.518;9.864;2022-07-29T13:22:58;98728.50;;;26.85;41.79
20710;BME280;10516;51.518;9.864;2022-07-29T13:25:30;98712.66;;;26.75;41.60
20710;BME280;10516;51.518;9.864;2022-07-29T13:27:58;98720.00;;;26.55;41.68
20710;BME280;10516;51.518;9.864;2022-07-29T13:30:24;98693.13;;;26.96;42.05
20710;BME280;10516;51.518;9.864;2022-07-29T13:32:51;98707.94;;;27.48;40.98
20710;BME280;10516;51.518;9.864;2022-07-29T13:35:18;98707.56;;;27.31;41.21
20710;BME280;10516;51.518;9.864;2022-07-29T13:37:44;98695.78;;;27.91;40.35
20710;BME280;10516;51.518;9.864;2022-07-29T13:40:11;98699.41;;;26.61;41.30
20710;BME280;10516;51.518;9.864;2022-07-29T13:42:36;98692.00;;;26.46;42.13
20710;BME280;10516;51.518;9.864;2022-07-29T13:45:03;98700.41;;;27.07;41.50